Time;durP1;ratioP1;P1;durP2;ratioP2;P2;SDS_P1;SDS_P2;PMS_P1;PMS_P2;Temp;Humidity;BMP_temperature;BMP_pressure;BME280_temperature;BME280_humidity;BME280_pressure;Samples;Min_cycle;Max_cycle;Signal;HPM_P1;HPM_P2
2022/09/18 00:01:15;;;;;;;29.70;4.22;;;;;;;16.09;61.15;100229.69;4941031;28;120577;-77
2022/09/18 00:03:41;;;;;;;39.17;4.93;;;;;;;16.08;61.80;100225.38;4942926;28;120758;-77
2022/09/18 00:06:10;;;;;;;29.95;4.40;;;;;;;16.11;61.35;100226.44;4923959;28;123584;-78
2022/09/18 00:08:37;;;;;;;55.45;4.70;;;;;;;16.14;61.59;100228.94;4924267;28;122617;-78
2022/09/18 00:11:11;;;;;;;42.77;5.60;;;;;;;16.19;62.01;100235.75;4924433;28;120082;-78
2022/09/18 00:13:38;;;;;;;30.95;4.53;;;;;;;16.15;61.40;100227.69;4924974;28;122383;-77
2022/09/18 00:16:05;;;;;;;36.70;4.70;;;;;;;16.24;62.47;100238.50;4922295;28;123644;-78
2022/09/18 00:18:32;;;;;;;55.78;5.60;;;;;;;16.25;61.95;100233.72;4936808;28;119916;-78
2022/09/18 00:21:09;;;;;;;33.67;5.20;;;;;;;16.27;62.34;100220.16;4937055;28;122139;-78
2022/09/18 00:23:36;;;;;;;27.70;4.32;;;;;;;16.23;61.70;100216.88;4913163;28;121703;-78
2022/09/18 00:26:03;;;;;;;31.65;4.53;;;;;;;16.26;61.09;100235.25;4925605;28;122295;-78
2022/09/18 00:28:28;;;;;;;47.40;5.40;;;;;;;16.25;61.76;100233.72;4942172;28;120297;-78
2022/09/18 00:30:54;;;;;;;33.78;4.55;;;;;;;16.20;61.58;100226.19;4909893;28;121036;-77
2022/09/18 00:33:23;;;;;;;26.38;4.75;;;;;;;16.20;61.57;100220.66;4941930;28;120544;-78
2022/09/18 00:35:48;;;;;;;43.70;5.10;;;;;;;16.22;61.33;100226.44;4903185;28;123862;-79
2022/09/18 00:38:14;;;;;;;45.20;5.50;;;;;;;16.21;61.29;100222.16;4903159;28;119805;-78
2022/09/18 00:40:39;;;;;;;36.97;5.13;;;;;;;16.25;60.97;100230.97;4940293;28;122301;-78
2022/09/18 00:43:23;;;;;;;32.07;4.87;;;;;;;16.25;60.90;100228.19;4937944;28;122643;-77
2022/09/18 00:45:58;;;;;;;37.00;5.18;;;;;;;16.25;61.85;100228.97;4923866;28;120054;-78
2022/09/18 00:48:30;;;;;;;39.05;4.72;;;;;;;16.21;62.49;100233.22;4924310;28;124226;-78
2022/09/18 00:50:56;;;;;;;26.70;3.85;;;;;;;16.18;61.72;100234.22;4936049;28;120024;-79
2022/09/18 00:53:22;;;;;;;46.17;5.13;;;;;;;16.15;62.63;100230.47;4920357;28;121794;-78
2022/09/18 00:55:48;;;;;;;45.20;4.80;;;;;;;16.09;63.02;100226.94;4940874;28;120270;-79
2022/09/18 00:58:13;;;;;;;40.53;5.10;;;;;;;16.10;63.00;100227.69;4937137;28;120588;-78
2022/09/18 01:00:39;;;;;;;28.67;4.47;;;;;;;16.08;62.30;100228.16;4922317;28;121841;-78
2022/09/18 01:03:05;;;;;;;41.37;5.07;;;;;;;16.06;63.32;100221.59;4923098;28;120683;-78
2022/09/18 01:05:42;;;;;;;38.40;5.30;;;;;;;16.06;62.00;100224.38;4940099;28;120010;-78
2022/09/18 01:08:17;;;;;;;33.47;4.57;;;;;;;16.03;62.38;100225.38;4928523;28;119971;-79
2022/09/18 01:10:46;;;;;;;33.75;4.18;;;;;;;16.02;62.79;100223.88;4919311;28;121654;-78
2022/09/18 01:13:28;;;;;;;42.40;5.30;;;;;;;16.05;64.22;100228.41;4925420;28;120379;-78
2022/09/18 01:16:04;;;;;;;41.47;4.95;;;;;;;16.04;63.13;100221.34;4918116;28;121392;-79
2022/09/18 01:18:40;;;;;;;26.77;4.47;;;;;;;16.05;62.99;100233.94;4908235;28;121495;-79
2022/09/18 01:21:05;;;;;;;25.02;4.50;;;;;;;16.07;62.81;100234.19;4917809;28;120555;-79
2022/09/18 01:23:39;;;;;;;30.53;3.93;;;;;;;16.03;62.76;100237.19;4924869;28;123121;-78
2022/09/18 01:26:23;;;;;;;27.43;3.80;;;;;;;16.02;62.67;100224.63;4923656;28;119924;-78
2022/09/18 01:29:12;;;;;;;30.63;4.40;;;;;;;15.99;62.26;100228.38;4923737;28;120962;-78
2022/09/18 01:31:55;;;;;;;27.60;4.07;;;;;;;15.97;63.22;100219.84;4912352;28;121499;-79
2022/09/18 01:34:48;;;;;;;24.80;4.03;;;;;;;15.95;62.59;100219.59;4918489;28;121847;-80
2022/09/18 01:37:27;;;;;;;36.20;4.57;;;;;;;15.96;63.27;100224.63;4902739;28;121360;-79
2022/09/18 01:40:03;;;;;;;29.05;3.72;;;;;;;15.90;63.14;100198.97;4938818;28;119955;-80
2022/09/18 01:42:31;;;;;;;39.67;4.55;;;;;;;15.93;63.45;100211.03;4940544;28;120042;-78
2022/09/18 01:45:03;;;;;;;33.57;4.53;;;;;;;15.93;62.80;100211.03;4903624;28;121342;-79
2022/09/18 01:47:34;;;;;;;46.90;4.70;;;;;;;15.88;62.32;100204.22;4921936;28;120376;-80
2022/09/18 01:50:27;;;;;;;27.02;3.65;;;;;;;15.79;63.06;100198.91;4908556;28;120312;-79
2022/09/18 01:53:20;;;;;;;36.38;4.10;;;;;;;15.79;64.11;100204.44;4911098;28;122582;-78
2022/09/18 01:56:00;;;;;;;24.85;3.65;;;;;;;15.77;64.03;100201.41;4934724;28;120632;-79
2022/09/18 01:58:27;;;;;;;24.98;3.50;;;;;;;15.71;63.75;100197.88;4910746;28;121005;-80
2022/09/18 02:00:59;;;;;;;23.37;3.77;;;;;;;15.66;64.61;100190.34;4925593;28;120998;-80
2022/09/18 02:03:34;;;;;;;26.15;3.60;;;;;;;15.63;64.71;100202.38;4911491;28;122125;-79
2022/09/18 02:06:25;;;;;;;22.20;3.63;;;;;;;15.58;64.74;100189.25;4922082;28;121446;-78
2022/09/18 02:08:54;;;;;;;24.03;3.53;;;;;;;15.50;65.13;100182.69;4918082;28;119920;-78
2022/09/18 02:11:22;;;;;;;21.15;3.58;;;;;;;15.45;64.20;100192.47;4898049;28;120416;-80
2022/09/18 02:13:58;;;;;;;28.43;3.63;;;;;;;15.43;65.71;100194.22;4943616;28;120355;-79
2022/09/18 02:16:41;;;;;;;25.88;3.80;;;;;;;15.40;65.81;100195.22;4923345;28;119953;-80
2022/09/18 02:19:17;;;;;;;21.67;3.50;;;;;;;15.38;65.38;100192.16;4924397;28;120597;-78
2022/09/18 02:21:45;;;;;;;26.80;3.30;;;;;;;15.40;66.12;100192.44;4935879;28;120912;-80
2022/09/18 02:24:14;;;;;;;27.70;3.80;;;;;;;15.42;65.52;100193.47;4919846;28;119975;-79
2022/09/18 02:26:41;;;;;;;29.40;4.00;;;;;;;15.44;66.17;100198.50;4923123;28;120731;-79
2022/09/18 02:29:11;;;;;;;30.90;4.53;;;;;;;15.46;65.27;100188.47;4928861;28;120090;-79
2022/09/18 02:31:38;;;;;;;26.48;3.70;;;;;;;15.49;66.13;100203.28;4901241;28;120401;-78
2022/09/18 02:34:07;;;;;;;25.10;3.50;;;;;;;15.46;65.40;100182.16;4911018;28;122678;-79
2022/09/18 02:36:38;;;;;;;30.30;3.50;;;;;;;15.47;65.56;100176.16;4943516;28;120389;-79
2022/09/18 02:39:26;;;;;;;21.35;3.28;;;;;;;15.48;65.02;100171.38;4923067;28;120287;-78
2022/09/18 02:42:11;;;;;;;26.77;3.38;;;;;;;15.47;65.23;100172.63;4917589;28;120033;-78
2022/09/18 02:44:48;;;;;;;21.10;3.10;;;;;;;15.42;65.02;100154.03;4904112;28;120522;-79
2022/09/18 02:47:43;;;;;;;14.98;2.60;;;;;;;15.41;65.06;100163.56;4927861;28;121582;-79
2022/09/18 02:50:27;;;;;;;22.63;3.28;;;;;;;15.32;64.28;100162.50;4838568;28;120448;-79
2022/09/18 02:53:23;;;;;;;15.20;2.70;;;;;;;15.15;63.62;100153.41;4903860;28;120569;-79
2022/09/18 02:55:54;;;;;;;22.00;2.90;;;;;;;15.16;64.53;100165.19;4941923;28;122141;-78
2022/09/18 02:58:33;;;;;;;22.10;2.80;;;;;;;15.10;64.87;100162.38;4918491;28;120144;-78
2022/09/18 03:01:03;;;;;;;24.52;3.10;;;;;;;15.08;65.31;100173.19;4938260;28;120578;-79
2022/09/18 03:03:32;;;;;;;22.73;2.72;;;;;;;15.03;66.33;100160.09;4931500;28;123163;-78
2022/09/18 03:06:07;;;;;;;27.00;3.50;;;;;;;15.03;64.41;100157.34;4905917;28;122166;-80
2022/09/18 03:08:35;;;;;;;16.50;2.90;;;;;;;14.99;65.51;100159.56;4923583;28;123232;-79
2022/09/18 03:11:04;;;;;;;43.43;4.07;;;;;;;14.95;65.36;100154.28;4922263;28;120318;-79
2022/09/18 03:13:30;;;;;;;18.17;2.50;;;;;;;15.00;65.43;100158.31;4898234;28;121486;-79
2022/09/18 03:15:56;;;;;;;26.50;2.90;;;;;;;14.98;66.03;100152.53;4942533;28;120199;-79
2022/09/18 03:18:22;;;;;;;18.95;2.72;;;;;;;14.91;65.18;100150.25;4925683;28;120296;-80
2022/09/18 03:20:48;;;;;;;15.48;2.50;;;;;;;14.90;65.78;100159.75;4904204;28;120210;-79
2022/09/18 03:23:14;;;;;;;24.25;2.90;;;;;;;14.90;65.32;100168.03;4926430;28;120146;-78
2022/09/18 03:25:41;;;;;;;32.85;3.28;;;;;;;14.87;65.18;100160.75;4937428;28;119881;-79
2022/09/18 03:28:08;;;;;;;19.35;3.03;;;;;;;14.86;66.02;100159.97;4928175;28;120330;-79
2022/09/18 03:30:37;;;;;;;24.85;3.22;;;;;;;14.85;65.20;100166.00;4923685;28;120077;-79
2022/09/18 03:33:02;;;;;;;20.48;2.80;;;;;;;14.85;64.86;100174.28;4942166;28;119960;-79
2022/09/18 03:35:31;;;;;;;20.83;2.80;;;;;;;14.81;65.17;100171.00;4919379;28;123399;-80
2022/09/18 03:37:57;;;;;;;26.60;3.35;;;;;;;14.80;66.66;100167.47;4940802;28;120002;-78
2022/09/18 03:40:25;;;;;;;22.17;3.35;;;;;;;14.80;67.11;100161.97;4906263;28;119723;-78
2022/09/18 03:42:50;;;;;;;23.27;3.00;;;;;;;14.82;66.97;100153.94;4929299;28;119773;-78
2022/09/18 03:45:16;;;;;;;39.70;4.43;;;;;;;14.92;66.60;100160.03;4934935;28;119612;-78
2022/09/18 03:47:42;;;;;;;30.98;3.30;;;;;;;14.97;66.57;100165.59;4899515;28;121658;-79
2022/09/18 03:50:10;;;;;;;24.33;3.53;;;;;;;15.00;66.88;100172.13;4920242;28;120014;-78
2022/09/18 03:52:36;;;;;;;24.20;3.28;;;;;;;15.06;66.42;100167.38;4924845;28;120349;-77
2022/09/18 03:55:15;;;;;;;32.05;3.97;;;;;;;15.08;65.90;100178.69;4899420;28;121355;-78
2022/09/18 03:57:59;;;;;;;23.95;3.47;;;;;;;15.08;66.67;100187.00;4933262;28;120343;-77
2022/09/18 04:01:04;;;;;;;31.70;3.80;;;;;;;15.05;65.99;100166.63;4902992;28;121029;-78
2022/09/18 04:03:39;;;;;;;21.03;3.17;;;;;;;15.02;66.24;100166.88;4919337;28;121577;-78
2022/09/18 04:06:24;;;;;;;27.87;3.17;;;;;;;15.08;67.19;100167.66;4923254;28;120261;-79
2022/09/18 04:09:12;;;;;;;31.83;3.67;;;;;;;15.11;65.85;100177.72;4925709;28;120385;-78
2022/09/18 04:11:45;;;;;;;20.75;3.13;;;;;;;15.10;66.50;100162.38;4941664;28;120178;-78
2022/09/18 04:14:11;;;;;;;29.10;3.67;;;;;;;15.11;65.74;100163.91;4908926;28;122534;-78
2022/09/18 04:16:38;;;;;;;19.15;2.70;;;;;;;15.10;65.88;100159.63;4905103;28;125086;-77
2022/09/18 04:19:06;;;;;;;23.80;3.05;;;;;;;15.06;66.07;100156.34;4923092;28;120470;-77
2022/09/18 04:21:31;;;;;;;38.70;3.43;;;;;;;15.08;66.43;100153.09;4898580;28;121756;-77
2022/09/18 04:23:57;;;;;;;26.47;3.47;;;;;;;15.05;66.12;100154.84;4884950;28;121171;-78
2022/09/18 04:26:25;;;;;;;23.65;3.10;;;;;;;15.09;65.77;100163.63;4906696;28;121649;-77
2022/09/18 04:28:53;;;;;;;28.25;3.50;;;;;;;15.00;66.20;100147.28;4904999;28;120530;-78
2022/09/18 04:31:19;;;;;;;23.38;3.65;;;;;;;15.08;65.82;100153.84;4885133;28;121987;-78
2022/09/18 04:33:45;;;;;;;20.83;3.40;;;;;;;15.05;66.41;100143.78;4912703;28;119527;-78
2022/09/18 04:36:11;;;;;;;23.35;3.20;;;;;;;15.06;65.12;100150.81;4940643;28;122021;-79
2022/09/18 04:38:38;;;;;;;28.65;3.88;;;;;;;15.02;65.28;100153.81;4909394;28;120468;-79
2022/09/18 04:41:04;;;;;;;23.52;3.45;;;;;;;15.00;65.01;100156.31;4885839;28;121962;-79
2022/09/18 04:43:29;;;;;;;31.70;3.80;;;;;;;15.01;65.29;100146.78;4903732;28;121865;-79
2022/09/18 04:45:55;;;;;;;23.55;3.50;;;;;;;15.02;65.80;100153.06;4917423;28;121212;-78
2022/09/18 04:48:21;;;;;;;32.03;4.30;;;;;;;15.07;65.72;100171.66;4893772;28;122219;-78
2022/09/18 04:50:48;;;;;;;37.70;5.43;;;;;;;15.10;65.76;100167.91;4920834;28;123458;-78
2022/09/18 04:53:16;;;;;;;32.77;4.13;;;;;;;15.14;65.18;100162.94;4941754;28;120742;-78
2022/09/18 04:55:45;;;;;;;38.03;4.60;;;;;;;15.12;66.41;100154.38;4941267;28;120608;-78
2022/09/18 04:58:13;;;;;;;27.05;3.97;;;;;;;15.16;66.05;100154.91;4905681;28;119741;-78
2022/09/18 05:00:41;;;;;;;34.20;4.40;;;;;;;15.15;65.85;100155.41;4908318;28;120027;-78
2022/09/18 05:03:07;;;;;;;35.67;4.18;;;;;;;15.18;65.80;100165.47;4903752;28;120243;-78
2022/09/18 05:05:36;;;;;;;40.00;4.57;;;;;;;15.13;65.97;100155.88;4909274;28;120453;-79
2022/09/18 05:08:03;;;;;;;31.87;4.23;;;;;;;15.15;64.97;100161.69;4924401;28;120331;-79
2022/09/18 05:10:29;;;;;;;29.75;4.28;;;;;;;15.14;66.17;100157.41;4887955;28;122809;-79
2022/09/18 05:12:55;;;;;;;33.17;4.20;;;;;;;15.20;65.61;100160.94;4921995;28;120275;-80
2022/09/18 05:15:21;;;;;;;36.33;4.60;;;;;;;15.21;65.98;100159.69;4907087;28;120459;-81
2022/09/18 05:18:10;;;;;;;29.27;4.63;;;;;;;15.26;65.64;100163.72;4919519;28;120657;-80
2022/09/18 05:20:35;;;;;;;27.90;4.40;;;;;;;15.26;65.10;100166.50;4907979;28;120876;-80
2022/09/18 05:23:05;;;;;;;38.13;4.53;;;;;;;15.30;65.06;100165.00;4924610;28;121495;-80
2022/09/18 05:25:31;;;;;;;26.80;4.10;;;;;;;15.28;63.56;100156.47;4900159;28;119933;-80
2022/09/18 05:27:59;;;;;;;26.50;4.07;;;;;;;15.27;64.09;100163.25;4919623;28;120220;-81
2022/09/18 05:30:30;;;;;;;31.52;4.32;;;;;;;15.27;63.93;100162.47;4923848;28;119992;-81
2022/09/18 05:33:00;;;;;;;24.30;3.50;;;;;;;15.21;63.35;100161.72;4909249;28;122590;-81
2022/09/18 05:35:53;;;;;;;21.07;3.63;;;;;;;15.16;62.48;100165.97;4924373;28;120227;-81
2022/09/18 05:38:19;;;;;;;28.20;3.78;;;;;;;15.23;63.75;100182.06;4922018;28;123795;-81
2022/09/18 05:40:52;;;;;;;19.10;3.00;;;;;;;15.24;62.49;100174.53;4942151;28;121369;-81
2022/09/18 05:43:18;;;;;;;26.60;3.70;;;;;;;15.23;63.50;100171.00;4923985;28;121479;-81
2022/09/18 05:45:46;;;;;;;22.35;3.42;;;;;;;15.15;61.34;100169.97;4921738;28;119838;-80
2022/09/18 05:48:16;;;;;;;24.55;3.50;;;;;;;15.15;61.76;100183.03;4905659;28;121783;-81
2022/09/18 05:50:43;;;;;;;25.92;4.00;;;;;;;15.05;62.42;100161.09;4919615;28;120192;-81
2022/09/18 05:53:14;;;;;;;20.67;3.60;;;;;;;15.05;63.08;100163.13;4904118;28;119930;-81
2022/09/18 05:55:54;;;;;;;22.47;3.33;;;;;;;15.02;63.35;100156.56;4918378;28;121948;-81
2022/09/18 05:58:20;;;;;;;37.20;4.27;;;;;;;15.00;64.40;100152.81;4905982;28;121014;-81
2022/09/18 06:00:51;;;;;;;31.45;4.07;;;;;;;14.94;64.19;100140.97;4894578;28;120402;-79
2022/09/18 06:03:23;;;;;;;23.73;3.72;;;;;;;14.95;64.72;100143.25;4932546;28;119950;-79
2022/09/18 06:05:53;;;;;;;37.80;4.32;;;;;;;14.91;64.51;100148.25;4898937;28;119777;-79
2022/09/18 06:08:20;;;;;;;46.17;4.95;;;;;;;14.88;65.40;100140.91;4908099;28;120327;-79
2022/09/18 06:10:46;;;;;;;42.78;4.82;;;;;;;14.90;65.20;100152.22;4919951;28;120223;-79
2022/09/18 06:13:14;;;;;;;41.43;4.40;;;;;;;14.90;65.63;100146.69;4924811;28;119997;-79
2022/09/18 06:15:45;;;;;;;42.87;4.73;;;;;;;14.89;65.23;100149.97;4904908;28;120338;-79
2022/09/18 06:18:13;;;;;;;36.90;4.72;;;;;;;14.92;66.21;100160.81;4920692;28;121058;-78
2022/09/18 06:20:41;;;;;;;33.85;4.25;;;;;;;14.94;67.06;100141.72;4904324;28;119934;-78
2022/09/18 06:23:07;;;;;;;22.52;3.75;;;;;;;15.02;66.50;100147.53;4923259;28;122452;-78
2022/09/18 06:25:42;;;;;;;33.15;4.45;;;;;;;15.20;66.89;100183.06;4918286;28;119970;-78
2022/09/18 06:28:08;;;;;;;16.20;3.20;;;;;;;15.28;64.02;100172.28;4907527;28;121754;-79
2022/09/18 06:30:35;;;;;;;34.78;3.67;;;;;;;15.32;64.69;100164.50;4920376;28;120189;-79
2022/09/18 06:33:04;;;;;;;20.35;2.92;;;;;;;15.29;63.42;100166.25;4893836;28;121052;-78
2022/09/18 06:35:34;;;;;;;26.13;3.30;;;;;;;15.22;62.10;100139.09;4920858;28;119889;-78
2022/09/18 06:38:01;;;;;;;20.67;3.15;;;;;;;15.25;62.26;100151.94;4917129;28;122621;-78
2022/09/18 06:40:48;;;;;;;18.55;2.97;;;;;;;15.27;62.83;100154.94;4925781;28;120234;-79
2022/09/18 06:43:20;;;;;;;24.88;3.65;;;;;;;15.26;63.30;100147.16;4930463;28;120452;-79
2022/09/18 06:46:22;;;;;;;32.30;4.13;;;;;;;15.20;63.36;100144.38;4906068;28;119975;-78
2022/09/18 06:48:48;;;;;;;25.35;3.50;;;;;;;15.25;63.47;100154.69;4923352;28;120022;-79
2022/09/18 06:51:14;;;;;;;37.75;4.43;;;;;;;15.23;63.84;100143.38;4943086;28;120301;-78
2022/09/18 06:53:59;;;;;;;18.27;3.25;;;;;;;15.28;63.20;100159.22;4919805;28;121187;-79
2022/09/18 06:56:24;;;;;;;32.30;3.95;;;;;;;15.30;63.31;100165.00;4926772;28;119984;-77
2022/09/18 06:58:52;;;;;;;20.45;3.38;;;;;;;15.32;63.03;100170.78;4941982;28;121157;-78
2022/09/18 07:01:19;;;;;;;32.67;4.07;;;;;;;15.32;63.59;100159.75;4899324;28;119969;-81
2022/09/18 07:03:48;;;;;;;27.85;3.42;;;;;;;15.35;64.09;100163.50;4939592;28;120763;-80
2022/09/18 07:06:21;;;;;;;20.63;3.15;;;;;;;15.47;64.22;100156.03;4935415;28;120853;-78
2022/09/18 07:08:49;;;;;;;18.67;3.17;;;;;;;15.56;63.01;100159.34;4911129;28;121859;-78
2022/09/18 07:11:27;;;;;;;18.92;2.90;;;;;;;15.68;63.48;100162.94;4923635;28;120190;-79
2022/09/18 07:13:53;;;;;;;34.20;3.88;;;;;;;15.77;62.36;100157.16;4893738;28;119992;-78
2022/09/18 07:16:18;;;;;;;34.23;3.93;;;;;;;15.81;61.25;100162.47;4909622;28;121822;-79
2022/09/18 07:18:47;;;;;;;19.45;3.10;;;;;;;15.85;61.88;100157.44;4926017;28;120419;-78
2022/09/18 07:21:13;;;;;;;22.03;3.27;;;;;;;15.89;61.93;100149.66;4925969;28;120282;-80
2022/09/18 07:23:41;;;;;;;16.00;2.65;;;;;;;16.10;62.13;100164.06;4891349;28;122170;-79
2022/09/18 07:26:07;;;;;;;15.55;2.65;;;;;;;16.16;60.77;100162.78;4889102;28;122889;-78
2022/09/18 07:28:34;;;;;;;17.73;2.58;;;;;;;16.31;61.86;100181.91;4911697;28;121716;-78
2022/09/18 07:31:10;;;;;;;18.17;2.87;;;;;;;16.31;60.83;100170.84;4925392;28;121951;-78
2022/09/18 07:33:36;;;;;;;18.73;2.40;;;;;;;16.22;60.24;100168.31;4925420;28;119822;-79
2022/09/18 07:36:03;;;;;;;26.08;2.70;;;;;;;16.08;60.83;100163.75;4926171;28;120050;-80
2022/09/18 07:38:33;;;;;;;18.23;2.60;;;;;;;15.99;62.14;100155.72;4924136;28;120819;-78
2022/09/18 07:41:01;;;;;;;16.05;2.45;;;;;;;15.90;60.67;100160.22;4924641;28;122505;-78
2022/09/18 07:43:28;;;;;;;18.58;2.80;;;;;;;15.80;61.75;100149.88;4909429;28;119907;-79
2022/09/18 07:45:54;;;;;;;18.65;2.70;;;;;;;15.80;61.92;100145.09;4906656;28;122857;-79
2022/09/18 07:48:24;;;;;;;19.08;2.90;;;;;;;15.76;62.36;100136.31;4904519;28;120640;-79
2022/09/18 07:51:03;;;;;;;14.63;2.13;;;;;;;15.82;61.64;100141.84;4926313;28;122149;-80
2022/09/18 07:53:31;;;;;;;20.67;2.53;;;;;;;15.82;60.96;100142.59;4926064;28;120562;-80
2022/09/18 07:55:58;;;;;;;15.97;2.50;;;;;;;15.90;61.88;100142.88;4926563;28;121378;-80
2022/09/18 07:58:25;;;;;;;15.05;2.15;;;;;;;15.93;62.05;100137.09;4924858;28;120599;-79
2022/09/18 08:01:02;;;;;;;23.23;2.80;;;;;;;15.95;61.31;100140.13;4924974;28;121846;-79
2022/09/18 08:03:53;;;;;;;22.83;2.53;;;;;;;15.91;61.79;100134.09;4872269;28;121727;-79
2022/09/18 08:06:19;;;;;;;24.02;2.83;;;;;;;15.87;62.75;100133.59;4884977;28;120780;-80
2022/09/18 08:09:13;;;;;;;13.13;2.23;;;;;;;16.01;62.74;100136.59;4812635;28;120315;-79
2022/09/18 08:11:58;;;;;;;16.63;2.80;;;;;;;16.12;61.59;100142.94;4885249;28;120269;-79
2022/09/18 08:14:40;;;;;;;18.95;2.55;;;;;;;16.15;61.18;100141.16;4859582;28;122838;-79
2022/09/18 08:17:26;;;;;;;19.00;2.55;;;;;;;16.18;61.68;100132.59;4841314;28;121515;-79
2022/09/18 08:20:23;;;;;;;13.38;2.70;;;;;;;16.22;60.39;100137.88;4815699;28;122209;-79
2022/09/18 08:23:11;;;;;;;18.40;2.60;;;;;;;16.30;61.79;100146.44;4840127;28;120347;-80
2022/09/18 08:25:41;;;;;;;18.13;3.00;;;;;;;16.41;61.29;100138.16;4842465;28;120794;-79
2022/09/18 08:28:08;;;;;;;17.23;2.57;;;;;;;16.53;60.66;100121.03;4812375;28;120163;-79
2022/09/18 08:30:41;;;;;;;15.77;2.65;;;;;;;16.72;60.90;100120.53;4829403;28;120058;-79
2022/09/18 08:33:10;;;;;;;16.60;2.90;;;;;;;16.92;62.19;100120.22;4840691;28;122060;-81
2022/09/18 08:35:36;;;;;;;12.70;2.38;;;;;;;17.12;59.60;100119.94;4837948;28;121652;-78
2022/09/18 08:38:26;;;;;;;16.93;2.70;;;;;;;17.24;59.39;100128.94;4829477;28;120463;-78
2022/09/18 08:42:08;;;;;;;27.63;3.40;;;;;;;17.23;58.82;100135.75;4878515;28;120220;-78
2022/09/18 08:44:51;;;;;;;18.58;2.83;;;;;;;17.15;59.59;100126.47;4868320;28;121646;-79
2022/09/18 08:47:25;;;;;;;19.03;2.70;;;;;;;17.11;59.83;100123.22;4868918;28;121322;-79
2022/09/18 08:50:01;;;;;;;17.10;2.77;;;;;;;17.05;59.70;100128.78;4916584;28;122613;-79
2022/09/18 08:52:34;;;;;;;15.40;2.60;;;;;;;16.95;59.07;100118.47;4916827;28;120358;-79
2022/09/18 08:55:09;;;;;;;20.52;2.92;;;;;;;16.84;57.83;100120.00;4917098;28;120955;-80
2022/09/18 08:58:01;;;;;;;20.40;3.30;;;;;;;16.64;58.31;100111.97;4921757;28;121979;-79
2022/09/18 09:00:36;;;;;;;14.40;2.78;;;;;;;16.58;59.83;100111.22;4904252;28;120173;-78
2022/09/18 09:03:33;;;;;;;12.93;2.83;;;;;;;16.54;59.67;100114.22;4920528;28;121592;-78
2022/09/18 09:06:10;;;;;;;19.55;2.90;;;;;;;16.50;58.96;100112.97;4932851;28;120161;-79
2022/09/18 09:08:55;;;;;;;29.30;3.78;;;;;;;16.45;59.79;100114.50;4904135;28;120409;-79
2022/09/18 09:11:44;;;;;;;19.73;3.38;;;;;;;16.46;60.68;100112.47;4899278;28;121516;-78
2022/09/18 09:14:19;;;;;;;19.80;3.43;;;;;;;16.46;60.33;100102.16;4902284;28;120050;-79
2022/09/18 09:17:31;;;;;;;20.58;3.10;;;;;;;16.69;61.00;100104.94;4917895;28;120740;-78
2022/09/18 09:20:05;;;;;;;18.77;2.95;;;;;;;16.93;60.97;100094.03;4921892;28;120508;-78
2022/09/18 09:22:40;;;;;;;16.45;3.28;;;;;;;17.27;60.21;100094.69;4921414;28;119780;-78
2022/09/18 09:25:22;;;;;;;22.73;2.77;;;;;;;17.61;58.46;100095.25;4921899;28;122136;-78
2022/09/18 09:28:48;;;;;;;17.00;2.78;;;;;;;17.84;57.95;100095.16;4903246;28;120390;-79
2022/09/18 09:31:39;;;;;;;21.90;2.92;;;;;;;17.99;57.18;100109.44;4916862;28;119750;-79
2022/09/18 09:34:45;;;;;;;14.02;2.63;;;;;;;17.81;56.58;100108.03;4892744;28;121365;-79
2022/09/18 09:37:40;;;;;;;12.02;2.30;;;;;;;17.50;57.12;100100.84;4915087;28;119676;-81
2022/09/18 09:40:33;;;;;;;16.42;2.85;;;;;;;17.25;57.93;100091.66;4921500;28;120525;-80
2022/09/18 09:43:10;;;;;;;21.52;2.80;;;;;;;17.13;58.82;100099.25;4917716;28;122819;-79
2022/09/18 09:45:49;;;;;;;21.27;3.08;;;;;;;16.99;59.45;100096.78;4921667;28;120048;-78
2022/09/18 09:48:33;;;;;;;19.73;2.95;;;;;;;16.96;59.46;100100.56;4889540;28;121833;-78
2022/09/18 09:51:44;;;;;;;16.03;2.70;;;;;;;16.85;58.73;100098.59;4891380;28;122433;-80
2022/09/18 09:54:11;;;;;;;18.73;2.63;;;;;;;16.67;59.90;100107.44;4877608;28;120291;-79
2022/09/18 09:57:17;;;;;;;16.95;2.80;;;;;;;16.57;59.80;100118.78;4887578;28;121537;-79
2022/09/18 10:00:01;;;;;;;21.80;2.95;;;;;;;16.47;60.73;100114.75;4927177;28;122406;-80
2022/09/18 10:03:23;;;;;;;17.02;2.95;;;;;;;16.43;60.69;100107.94;4931553;28;120418;-80
2022/09/18 10:05:51;;;;;;;21.37;3.40;;;;;;;16.33;62.04;100106.72;4914278;28;122348;-80
2022/09/18 10:08:58;;;;;;;19.43;3.23;;;;;;;16.21;62.96;100105.94;4931161;28;122700;-79
2022/09/18 10:11:26;;;;;;;16.77;2.77;;;;;;;16.10;62.39;100103.94;4934954;28;120354;-78
2022/09/18 10:14:04;;;;;;;24.70;3.35;;;;;;;16.09;62.51;100109.94;4932599;28;121314;-79
2022/09/18 10:16:39;;;;;;;20.00;3.42;;;;;;;16.01;62.70;100111.72;4918869;28;120031;-80
2022/09/18 10:19:12;;;;;;;34.97;3.80;;;;;;;15.88;63.48;100101.16;4906393;28;122061;-80
2022/09/18 10:21:40;;;;;;;23.13;3.47;;;;;;;15.84;64.23;100095.09;4929128;28;120690;-80
2022/09/18 10:24:21;;;;;;;28.35;3.50;;;;;;;15.86;64.84;100101.66;4919056;28;120708;-79
2022/09/18 10:26:56;;;;;;;24.17;3.60;;;;;;;15.85;65.04;100105.69;4919407;28;120409;-80
2022/09/18 10:29:22;;;;;;;35.88;3.78;;;;;;;15.80;65.55;100087.03;4918351;28;120021;-79
2022/09/18 10:31:57;;;;;;;28.15;3.70;;;;;;;15.93;65.96;100087.31;4918882;28;120972;-79
2022/09/18 10:34:41;;;;;;;26.70;3.67;;;;;;;16.11;66.34;100090.88;4926049;28;120599;-78
2022/09/18 10:37:36;;;;;;;42.13;4.22;;;;;;;16.34;67.17;100081.31;4935855;28;120572;-79
2022/09/18 10:40:29;;;;;;;20.80;3.35;;;;;;;16.74;67.44;100090.31;4917913;28;120403;-79
2022/09/18 10:43:02;;;;;;;23.83;3.38;;;;;;;17.06;67.28;100077.63;4904564;28;121947;-79
2022/09/18 10:45:40;;;;;;;20.80;3.30;;;;;;;17.39;64.79;100076.72;4915379;28;120729;-78
2022/09/18 10:48:28;;;;;;;30.13;3.97;;;;;;;17.69;63.96;100085.16;4904492;28;121111;-79
2022/09/18 10:51:00;;;;;;;25.97;3.33;;;;;;;17.82;62.38;100075.50;4933358;28;122529;-80
2022/09/18 10:53:41;;;;;;;20.83;2.90;;;;;;;17.74;61.44;100087.16;4903970;28;122003;-79
2022/09/18 10:56:23;;;;;;;27.00;3.47;;;;;;;17.58;61.20;100079.66;4904283;28;123135;-79
2022/09/18 10:59:27;;;;;;;18.02;2.47;;;;;;;17.40;61.76;100088.56;4907743;28;119909;-79
2022/09/18 11:01:58;;;;;;;26.40;3.42;;;;;;;17.23;61.64;100085.09;4924033;28;120530;-79
2022/09/18 11:04:26;;;;;;;22.00;3.23;;;;;;;17.16;61.87;100080.88;4940345;28;120750;-79
2022/09/18 11:06:53;;;;;;;24.63;3.37;;;;;;;17.16;62.71;100098.25;4920767;28;120105;-79
2022/09/18 11:09:37;;;;;;;27.38;3.45;;;;;;;17.13;62.79;100079.13;4918617;28;121112;-79
2022/09/18 11:12:04;;;;;;;28.50;3.47;;;;;;;17.29;63.80;100072.00;4923242;28;120262;-78
2022/09/18 11:15:03;;;;;;;16.25;2.70;;;;;;;17.53;62.70;100080.44;4919273;28;120251;-79
2022/09/18 11:17:32;;;;;;;24.33;3.43;;;;;;;17.78;61.87;100090.41;4908605;28;121193;-79
2022/09/18 11:20:05;;;;;;;31.05;3.60;;;;;;;17.90;62.12;100079.22;4900176;28;121603;-79
2022/09/18 11:23:23;;;;;;;22.60;3.57;;;;;;;18.03;61.38;100073.81;4920190;28;120691;-79
2022/09/18 11:26:10;;;;;;;16.38;3.17;;;;;;;18.11;60.94;100074.75;4937887;28;120114;-79
2022/09/18 11:28:35;;;;;;;18.60;3.00;;;;;;;18.16;59.93;100078.75;4921182;28;120805;-79
2022/09/18 11:31:15;;;;;;;13.13;2.28;;;;;;;18.26;59.96;100072.38;4901904;28;120363;-79
2022/09/18 11:33:47;;;;;;;13.25;2.30;;;;;;;18.38;60.16;100070.22;4936396;28;120297;-79
2022/09/18 11:36:23;;;;;;;16.65;1.80;;;;;;;18.46;58.24;100067.66;4900003;28;121091;-79
2022/09/18 11:38:50;;;;;;;10.63;1.65;;;;;;;18.50;57.41;100066.09;4933655;28;120407;-79
2022/09/18 11:41:33;;;;;;;12.40;2.00;;;;;;;18.58;59.67;100063.47;4902772;28;120308;-78
2022/09/18 11:44:02;;;;;;;26.60;1.92;;;;;;;18.72;56.75;100062.38;4918896;28;122051;-78